createdAt,value
2018-03-27T00:00:35.620Z,3.57
2018-03-27T00:03:03.177Z,2.87
2018-03-27T00:05:31.378Z,3.30
2018-03-27T00:07:58.809Z,2.37
2018-03-27T00:10:26.265Z,3.43
2018-03-27T00:12:53.733Z,3.67
2018-03-27T00:15:21.188Z,3.00
2018-03-27T00:17:51.266Z,2.00
2018-03-27T00:20:18.773Z,3.27
2018-03-27T00:22:46.257Z,3.07
2018-03-27T00:25:13.700Z,4.23
2018-03-27T00:27:52.955Z,2.63
2018-03-27T00:33:16.757Z,1.80
2018-03-27T00:35:56.176Z,1.77
2018-03-27T00:38:35.350Z,3.47
2018-03-27T00:41:03.630Z,2.80
2018-03-27T00:43:31.088Z,3.00
2018-03-27T00:45:58.543Z,3.00
2018-03-27T00:48:25.994Z,2.93
2018-03-27T00:50:53.475Z,3.30
2018-03-27T00:53:20.917Z,2.40
2018-03-27T00:55:48.353Z,3.80
2018-03-27T00:58:15.805Z,3.53
2018-03-27T01:00:43.248Z,3.50
2018-03-27T01:03:10.710Z,3.93
2018-03-27T01:05:38.145Z,3.70
2018-03-27T01:08:05.852Z,4.43
2018-03-27T01:10:33.344Z,3.27
2018-03-27T01:13:00.787Z,4.93
2018-03-27T01:15:28.237Z,4.23
2018-03-27T01:17:58.373Z,2.83
2018-03-27T01:20:28.360Z,3.33
2018-03-27T01:22:55.792Z,2.77
2018-03-27T01:25:23.232Z,2.93
2018-03-27T01:27:50.669Z,3.57
2018-03-27T01:30:18.121Z,2.93
2018-03-27T01:32:45.598Z,3.33
2018-03-27T01:35:13.034Z,3.43
2018-03-27T01:37:40.477Z,3.67
2018-03-27T01:40:08.167Z,4.70
2018-03-27T01:42:35.626Z,2.93
2018-03-27T01:45:03.085Z,4.53
2018-03-27T01:47:30.685Z,3.30
2018-03-27T01:49:58.131Z,2.43
2018-03-27T01:52:25.583Z,3.10
2018-03-27T01:54:53.013Z,2.80
2018-03-27T01:57:20.463Z,3.67
2018-03-27T01:59:48.687Z,2.67
2018-03-27T02:02:16.135Z,2.60
2018-03-27T02:04:43.583Z,3.63
2018-03-27T02:07:11.017Z,3.17
2018-03-27T02:09:38.462Z,3.33
2018-03-27T02:12:11.568Z,3.57
2018-03-27T02:14:44.624Z,2.47
2018-03-27T02:17:17.752Z,3.60
2018-03-27T02:19:50.879Z,4.60
2018-03-27T02:22:18.338Z,2.70
2018-03-27T02:24:45.781Z,3.33
2018-03-27T02:27:13.405Z,3.90
2018-03-27T02:29:40.845Z,4.40
2018-03-27T02:32:08.325Z,3.20
2018-03-27T02:34:35.753Z,3.33
2018-03-27T02:37:03.211Z,3.67
2018-03-27T02:39:30.648Z,4.50
2018-03-27T02:41:58.279Z,3.80
2018-03-27T02:44:25.738Z,3.23
2018-03-27T02:46:53.169Z,3.73
2018-03-27T02:49:20.616Z,3.60
2018-03-27T02:51:48.096Z,4.77
2018-03-27T02:54:15.539Z,3.47
2018-03-27T02:56:42.982Z,4.10
2018-03-27T02:59:10.426Z,4.20
2018-03-27T03:01:37.878Z,5.20
2018-03-27T03:04:06.114Z,4.40
2018-03-27T03:06:33.558Z,3.33
2018-03-27T03:09:01.007Z,3.30
2018-03-27T03:11:28.601Z,4.20
2018-03-27T03:13:56.044Z,4.30
2018-03-27T03:16:23.500Z,3.70
2018-03-27T03:18:50.955Z,3.17
2018-03-27T03:21:18.440Z,2.93
2018-03-27T03:23:45.872Z,2.93
2018-03-27T03:26:13.321Z,3.70
2018-03-27T03:28:40.761Z,2.60
2018-03-27T03:31:08.202Z,4.30
2018-03-27T03:33:35.645Z,3.77
2018-03-27T03:36:03.232Z,2.03
2018-03-27T03:38:30.671Z,3.80
2018-03-27T03:40:58.116Z,3.03
2018-03-27T03:43:25.553Z,2.43
2018-03-27T03:45:53.004Z,3.43
2018-03-27T03:48:20.513Z,4.03
2018-03-27T03:50:47.992Z,3.57
2018-03-27T03:53:15.448Z,2.97
2018-03-27T03:55:42.890Z,2.40
2018-03-27T03:58:10.350Z,5.27
2018-03-27T04:00:37.786Z,3.30
2018-03-27T04:03:05.217Z,3.17
2018-03-27T04:05:32.746Z,2.97
2018-03-27T04:08:00.195Z,3.63
2018-03-27T04:10:27.646Z,3.37
2018-03-27T04:12:55.151Z,4.50
2018-03-27T04:15:22.588Z,4.00
2018-03-27T04:17:54.085Z,3.00
2018-03-27T04:20:21.522Z,3.30
2018-03-27T04:22:49.378Z,4.60
2018-03-27T04:25:16.818Z,4.13
2018-03-27T04:27:44.400Z,3.90
2018-03-27T04:30:11.963Z,4.07
2018-03-27T04:32:39.402Z,3.03
2018-03-27T04:35:06.852Z,3.00
2018-03-27T04:37:34.287Z,2.67
2018-03-27T04:40:01.839Z,4.70
2018-03-27T04:42:29.281Z,3.17
2018-03-27T04:44:56.733Z,3.17
2018-03-27T04:47:24.594Z,4.20
2018-03-27T04:49:52.039Z,2.90
2018-03-27T04:52:19.469Z,3.53
2018-03-27T04:54:46.922Z,3.53
2018-03-27T04:57:14.458Z,2.60
2018-03-27T04:59:41.935Z,2.33
2018-03-27T05:02:09.397Z,5.17
2018-03-27T05:04:36.837Z,2.33
2018-03-27T05:07:04.302Z,3.17
2018-03-27T05:09:31.763Z,4.53
2018-03-27T05:11:59.292Z,4.50
2018-03-27T05:14:27.071Z,3.00
2018-03-27T05:16:54.662Z,5.67
2018-03-27T05:19:22.117Z,3.43
2018-03-27T05:21:49.575Z,3.47
2018-03-27T05:24:17.052Z,2.97
2018-03-27T05:26:44.494Z,2.47
2018-03-27T05:29:11.941Z,3.13
2018-03-27T05:31:39.600Z,3.70
2018-03-27T05:34:07.030Z,3.90
2018-03-27T05:36:34.490Z,4.33
2018-03-27T05:39:01.934Z,4.17
2018-03-27T05:41:32.216Z,3.70
2018-03-27T05:43:59.669Z,4.10
2018-03-27T05:46:27.113Z,4.60
2018-03-27T05:48:54.565Z,4.37
2018-03-27T05:51:22.023Z,4.00
2018-03-27T05:53:49.626Z,3.97
2018-03-27T05:56:17.081Z,3.57
2018-03-27T05:58:44.522Z,4.73
2018-03-27T06:01:11.995Z,3.60
2018-03-27T06:03:39.481Z,2.70
2018-03-27T06:06:06.917Z,4.70
2018-03-27T06:08:34.378Z,3.47
2018-03-27T06:11:01.810Z,5.03
2018-03-27T06:13:29.265Z,3.97
2018-03-27T06:15:56.794Z,6.90
2018-03-27T06:18:24.232Z,4.40
2018-03-27T06:20:51.938Z,4.73
2018-03-27T06:23:19.399Z,5.93
2018-03-27T06:25:46.849Z,4.57
2018-03-27T06:28:14.318Z,5.40
2018-03-27T06:30:41.769Z,3.93
2018-03-27T06:33:10.742Z,4.93
2018-03-27T06:35:38.178Z,5.70
2018-03-27T06:38:05.637Z,3.30
2018-03-27T06:40:33.071Z,3.37
2018-03-27T06:43:00.509Z,3.77
2018-03-27T06:45:27.953Z,6.40
2018-03-27T06:47:59.130Z,3.87
2018-03-27T06:50:26.834Z,4.33
2018-03-27T06:52:54.315Z,5.40
2018-03-27T06:55:21.726Z,5.07
2018-03-27T06:57:49.201Z,4.87
2018-03-27T07:00:16.813Z,4.23
2018-03-27T07:02:44.258Z,4.90
2018-03-27T07:05:11.768Z,3.57
2018-03-27T07:07:39.159Z,4.33
2018-03-27T07:10:07.375Z,3.90
2018-03-27T07:12:34.824Z,5.37
2018-03-27T07:15:02.266Z,5.47
2018-03-27T07:17:29.716Z,3.80
2018-03-27T07:19:57.122Z,4.90
2018-03-27T07:22:24.572Z,4.23
2018-03-27T07:24:52.002Z,4.07
2018-03-27T07:27:19.456Z,5.00
2018-03-27T07:29:46.897Z,4.17
2018-03-27T07:32:14.340Z,2.77
2018-03-27T07:34:41.798Z,6.40
2018-03-27T07:37:09.232Z,4.50
2018-03-27T07:39:37.094Z,6.37
2018-03-27T07:42:04.520Z,2.63
2018-03-27T07:44:32.042Z,4.10
2018-03-27T07:46:59.612Z,4.50
2018-03-27T07:49:27.058Z,3.83
2018-03-27T07:51:54.608Z,5.70
2018-03-27T07:54:22.060Z,4.30
2018-03-27T07:56:49.501Z,4.00
2018-03-27T07:59:16.952Z,4.00
2018-03-27T08:01:45.175Z,4.03
2018-03-27T08:04:12.636Z,4.80
2018-03-27T08:06:40.078Z,5.77
2018-03-27T08:09:07.781Z,4.77
2018-03-27T08:11:35.244Z,4.43
2018-03-27T08:14:02.692Z,4.13
2018-03-27T08:16:30.393Z,4.13
2018-03-27T08:18:58.059Z,4.43
2018-03-27T08:21:27.024Z,3.70
2018-03-27T08:23:54.799Z,4.23
2018-03-27T08:26:22.286Z,4.20
2018-03-27T08:28:50.033Z,4.43
2018-03-27T08:31:17.612Z,4.00
2018-03-27T08:33:45.054Z,3.83
2018-03-27T08:36:12.682Z,3.63
2018-03-27T08:38:40.480Z,3.57
2018-03-27T08:41:08.362Z,4.30
2018-03-27T08:43:35.828Z,4.00
2018-03-27T08:46:03.274Z,4.07
2018-03-27T08:48:30.730Z,4.30
2018-03-27T08:50:58.160Z,4.33
2018-03-27T08:53:25.962Z,3.80
2018-03-27T08:55:53.406Z,4.80
2018-03-27T08:58:20.864Z,4.80
2018-03-27T09:00:48.336Z,4.33
2018-03-27T09:03:15.844Z,4.43
2018-03-27T09:05:43.481Z,5.17
2018-03-27T09:08:10.938Z,4.33
2018-03-27T09:10:38.381Z,4.53
2018-03-27T09:13:08.050Z,3.80
2018-03-27T09:15:35.490Z,5.73
2018-03-27T09:18:03.082Z,5.77
2018-03-27T09:20:30.905Z,6.13
2018-03-27T09:22:58.380Z,5.57
2018-03-27T09:25:26.114Z,3.60
2018-03-27T09:27:53.552Z,6.33
2018-03-27T09:30:21.191Z,5.67
2018-03-27T09:35:27.125Z,5.97
2018-03-27T09:37:57.173Z,4.80
2018-03-27T09:40:24.614Z,5.30
2018-03-27T09:42:52.070Z,6.30
2018-03-27T09:45:19.516Z,5.47
2018-03-27T09:47:46.973Z,6.60
2018-03-27T09:50:14.420Z,6.43
2018-03-27T09:52:42.038Z,7.10
2018-03-27T09:55:09.526Z,7.60
2018-03-27T09:57:37.036Z,5.40
2018-03-27T10:00:05.316Z,6.70
2018-03-27T10:02:32.790Z,6.50
2018-03-27T10:05:00.239Z,6.17
2018-03-27T10:07:27.704Z,6.50
2018-03-27T10:09:55.129Z,7.07
2018-03-27T10:12:22.603Z,7.77
2018-03-27T10:14:50.059Z,5.30
2018-03-27T10:17:17.500Z,7.40
2018-03-27T10:19:44.956Z,6.23
2018-03-27T10:22:12.547Z,7.43
2018-03-27T10:24:39.983Z,7.90
2018-03-27T10:27:08.350Z,10.17
2018-03-27T10:29:35.785Z,7.43
2018-03-27T10:32:03.231Z,6.33
2018-03-27T10:34:30.693Z,7.90
2018-03-27T10:36:58.373Z,11.17
2018-03-27T10:39:25.849Z,7.90
2018-03-27T10:41:53.531Z,8.27
2018-03-27T10:44:20.998Z,9.80
2018-03-27T10:46:48.441Z,7.67
2018-03-27T10:49:15.909Z,7.77
2018-03-27T10:51:43.371Z,9.00
2018-03-27T10:54:10.819Z,7.70
2018-03-27T10:56:38.274Z,8.00
2018-03-27T10:59:05.934Z,6.90
2018-03-27T11:01:33.520Z,7.23
2018-03-27T11:04:00.985Z,8.20
2018-03-27T11:06:28.413Z,10.73
2018-03-27T11:08:55.865Z,7.77
2018-03-27T11:11:23.327Z,8.33
2018-03-27T11:13:50.794Z,6.43
2018-03-27T11:16:18.308Z,8.27
2018-03-27T11:18:46.528Z,8.23
2018-03-27T11:21:14.179Z,7.00
2018-03-27T11:23:41.625Z,6.40
2018-03-27T11:26:09.081Z,4.97
2018-03-27T11:28:36.701Z,5.80
2018-03-27T11:31:04.158Z,5.93
2018-03-27T11:33:32.612Z,7.70
2018-03-27T11:36:00.058Z,7.90
2018-03-27T11:38:27.504Z,7.97
2018-03-27T11:40:54.944Z,8.40
2018-03-27T11:43:22.509Z,6.77
2018-03-27T11:45:49.964Z,10.10
2018-03-27T11:48:17.409Z,8.30
2018-03-27T11:50:44.877Z,7.60
2018-03-27T11:53:12.642Z,7.57
2018-03-27T11:55:40.094Z,10.23
2018-03-27T11:58:07.562Z,9.10
2018-03-27T12:00:35.008Z,7.67
2018-03-27T12:03:02.640Z,7.80
2018-03-27T12:05:30.087Z,8.90
2018-03-27T12:08:01.102Z,9.67
2018-03-27T12:10:28.553Z,9.83
2018-03-27T12:12:56.138Z,9.30
2018-03-27T12:15:23.687Z,8.77
2018-03-27T12:17:54.526Z,9.83
2018-03-27T12:20:22.238Z,8.40
2018-03-27T12:22:49.674Z,8.13
2018-03-27T12:25:17.110Z,8.03
2018-03-27T12:27:44.585Z,8.20
2018-03-27T12:30:12.022Z,8.47
2018-03-27T12:32:39.473Z,8.67
2018-03-27T12:35:07.261Z,9.57
2018-03-27T12:37:34.734Z,8.27
2018-03-27T12:40:02.194Z,8.30
2018-03-27T12:42:29.644Z,9.07
2018-03-27T12:44:57.193Z,9.97
2018-03-27T12:47:24.624Z,9.80
2018-03-27T12:49:52.082Z,7.30
2018-03-27T12:52:19.537Z,8.53
2018-03-27T12:54:47.053Z,8.37
2018-03-27T12:57:14.930Z,9.90
2018-03-27T12:59:42.381Z,8.77
2018-03-27T13:02:10.001Z,8.90
2018-03-27T13:04:37.913Z,11.67
2018-03-27T13:07:05.338Z,10.70
2018-03-27T13:09:32.781Z,10.17
2018-03-27T13:12:00.618Z,9.70
2018-03-27T13:14:28.057Z,9.20
2018-03-27T13:16:55.567Z,11.50
2018-03-27T13:19:23.010Z,10.30
2018-03-27T13:21:50.453Z,9.40
2018-03-27T13:24:17.912Z,9.10
2018-03-27T13:26:52.236Z,8.50
2018-03-27T13:29:19.686Z,10.77
2018-03-27T13:31:47.142Z,11.27
2018-03-27T13:34:14.582Z,9.83
2018-03-27T13:36:42.804Z,10.10
2018-03-27T13:39:10.254Z,7.70
2018-03-27T13:41:37.746Z,8.90
2018-03-27T13:44:05.187Z,8.50
2018-03-27T13:46:32.637Z,10.50
2018-03-27T13:49:00.110Z,11.33
2018-03-27T13:51:27.571Z,10.60
2018-03-27T13:53:55.221Z,9.40
2018-03-27T13:56:22.714Z,10.07
2018-03-27T13:58:50.157Z,10.70
2018-03-27T14:01:17.627Z,13.07
2018-03-27T14:03:45.289Z,11.87
2018-03-27T14:06:12.742Z,12.40
2018-03-27T14:08:40.190Z,11.17
2018-03-27T14:11:07.630Z,11.83
2018-03-27T14:13:35.081Z,12.30
2018-03-27T14:16:03.102Z,9.70
2018-03-27T14:18:30.666Z,9.70
2018-03-27T14:20:58.130Z,10.03
2018-03-27T14:23:25.561Z,9.47
2018-03-27T14:25:53.032Z,8.27
2018-03-27T14:28:20.717Z,8.93
2018-03-27T14:30:48.208Z,8.20
2018-03-27T14:33:15.667Z,9.03
2018-03-27T14:35:43.126Z,8.43
2018-03-27T14:38:10.582Z,8.90
2018-03-27T14:40:38.020Z,10.00
2018-03-27T14:43:05.476Z,9.53
2018-03-27T14:45:33.136Z,10.17
2018-03-27T14:48:00.817Z,10.63
2018-03-27T14:50:28.313Z,11.10
2018-03-27T14:52:55.842Z,6.30
2018-03-27T14:55:23.311Z,7.30
2018-03-27T14:57:50.762Z,7.83
2018-03-27T15:00:18.221Z,9.30
2018-03-27T15:02:45.679Z,7.10
2018-03-27T15:05:13.134Z,10.50
2018-03-27T15:07:40.590Z,8.97
2018-03-27T15:10:08.054Z,10.07
2018-03-27T15:12:35.481Z,9.57
2018-03-27T15:15:02.933Z,9.30
2018-03-27T15:17:30.368Z,8.07
2018-03-27T15:19:57.821Z,9.00
2018-03-27T15:22:25.287Z,10.53
2018-03-27T15:24:52.958Z,8.93
2018-03-27T15:27:20.406Z,7.80
2018-03-27T15:29:47.869Z,5.47
2018-03-27T15:32:15.321Z,6.23
2018-03-27T15:34:42.766Z,7.10
2018-03-27T15:37:10.277Z,8.30
2018-03-27T15:39:40.477Z,8.33
2018-03-27T15:42:07.928Z,9.83
2018-03-27T15:44:35.377Z,9.10
2018-03-27T15:47:02.829Z,8.70
2018-03-27T15:49:30.285Z,7.73
2018-03-27T15:51:58.747Z,6.57
2018-03-27T15:54:26.185Z,6.70
2018-03-27T15:56:53.654Z,6.67
2018-03-27T15:59:21.094Z,9.53
2018-03-27T16:01:48.730Z,8.73
2018-03-27T16:04:16.170Z,8.87
2018-03-27T16:06:43.611Z,7.33
2018-03-27T16:09:11.057Z,7.90
2018-03-27T16:11:38.509Z,7.37
2018-03-27T16:14:05.946Z,7.23
2018-03-27T16:16:33.400Z,7.20
2018-03-27T16:19:00.845Z,8.77
2018-03-27T16:21:28.296Z,7.13
2018-03-27T16:23:55.898Z,8.63
2018-03-27T16:26:23.338Z,6.40
2018-03-27T16:28:50.791Z,8.17
2018-03-27T16:31:18.248Z,8.80
2018-03-27T16:33:45.941Z,8.97
2018-03-27T16:36:13.388Z,7.43
2018-03-27T16:38:40.848Z,11.03
2018-03-27T16:41:08.309Z,10.47
2018-03-27T16:43:35.765Z,10.33
2018-03-27T16:46:03.193Z,8.43
2018-03-27T16:48:31.436Z,8.00
2018-03-27T16:51:00.397Z,10.13
2018-03-27T16:53:27.857Z,10.37
2018-03-27T16:55:55.363Z,8.50
2018-03-27T16:58:22.830Z,10.17
2018-03-27T17:00:50.292Z,9.97
2018-03-27T17:03:18.154Z,11.67
2018-03-27T17:05:45.601Z,9.43
2018-03-27T17:08:13.066Z,9.13
2018-03-27T17:10:40.524Z,11.60
2018-03-27T17:13:08.108Z,9.83
2018-03-27T17:15:35.566Z,10.97
2018-03-27T17:18:03.021Z,11.00
2018-03-27T17:20:30.481Z,9.77
2018-03-27T17:22:57.925Z,9.17
2018-03-27T17:25:25.376Z,8.17
2018-03-27T17:27:52.824Z,12.03
2018-03-27T17:30:20.285Z,8.53
2018-03-27T17:32:47.726Z,8.70
2018-03-27T17:35:15.173Z,8.73
2018-03-27T17:37:43.626Z,9.10
2018-03-27T17:40:11.094Z,9.10
2018-03-27T17:42:38.596Z,7.97
2018-03-27T17:45:06.042Z,10.40
2018-03-27T17:47:33.608Z,10.03
2018-03-27T17:50:01.446Z,7.63
2018-03-27T17:52:28.877Z,8.27
2018-03-27T17:54:56.350Z,9.73
2018-03-27T17:57:23.785Z,9.80
2018-03-27T17:59:51.259Z,10.70
2018-03-27T18:02:18.694Z,7.00
2018-03-27T18:04:46.890Z,8.17
2018-03-27T18:07:14.354Z,7.07
2018-03-27T18:09:41.962Z,8.77
2018-03-27T18:12:09.435Z,9.97
2018-03-27T18:14:36.886Z,12.17
2018-03-27T18:17:04.326Z,8.93
2018-03-27T18:19:31.807Z,10.47
2018-03-27T18:21:59.273Z,8.20
2018-03-27T18:24:26.918Z,9.10
2018-03-27T18:26:54.352Z,8.23
2018-03-27T18:29:21.829Z,8.20
2018-03-27T18:31:49.613Z,7.07
2018-03-27T18:34:17.054Z,8.90
2018-03-27T18:36:44.505Z,11.73
2018-03-27T18:39:11.941Z,9.40
2018-03-27T18:41:40.161Z,7.50
2018-03-27T18:44:07.959Z,8.10
2018-03-27T18:46:35.414Z,9.23
2018-03-27T18:49:02.861Z,8.57
2018-03-27T18:51:30.319Z,9.40
2018-03-27T18:53:57.750Z,9.70
2018-03-27T18:56:25.204Z,7.87
2018-03-27T18:58:52.639Z,10.00
2018-03-27T19:01:20.935Z,6.83
2018-03-27T19:03:48.386Z,8.90
2018-03-27T19:06:15.843Z,9.20
2018-03-27T19:08:44.322Z,8.80
2018-03-27T19:11:12.627Z,12.00
2018-03-27T19:13:40.078Z,8.90
2018-03-27T19:16:07.518Z,11.40
2018-03-27T19:18:34.952Z,9.27
2018-03-27T19:21:02.426Z,12.40
2018-03-27T19:23:30.162Z,9.57
2018-03-27T19:25:57.883Z,9.13
2018-03-27T19:28:25.322Z,8.43
2018-03-27T19:30:52.763Z,9.90
2018-03-27T19:33:20.472Z,10.57
2018-03-27T19:35:47.917Z,8.80
2018-03-27T19:38:15.374Z,9.50
2018-03-27T19:40:42.821Z,9.10
2018-03-27T19:43:10.263Z,7.97
2018-03-27T19:45:37.722Z,9.03
2018-03-27T19:48:05.443Z,10.30
2018-03-27T19:50:32.891Z,9.97
2018-03-27T19:53:00.348Z,8.30
2018-03-27T19:55:27.788Z,8.27
2018-03-27T19:57:55.250Z,8.53
2018-03-27T20:00:22.690Z,9.30
2018-03-27T20:02:50.149Z,9.47
2018-03-27T20:05:17.597Z,9.97
2018-03-27T20:07:45.333Z,10.50
2018-03-27T20:10:12.790Z,8.70
2018-03-27T20:12:40.269Z,8.83
2018-03-27T20:15:07.709Z,10.47
2018-03-27T20:17:35.165Z,11.03
2018-03-27T20:20:02.610Z,9.43
2018-03-27T20:22:30.062Z,8.07
2018-03-27T20:24:57.505Z,7.70
2018-03-27T20:27:24.965Z,9.20
2018-03-27T20:29:52.556Z,9.57
2018-03-27T20:32:20.047Z,9.20
2018-03-27T20:34:47.593Z,10.60
2018-03-27T20:37:15.030Z,8.07
2018-03-27T20:39:42.497Z,6.17
2018-03-27T20:42:09.942Z,10.13
2018-03-27T20:44:37.398Z,8.47
2018-03-27T20:47:04.844Z,10.03
2018-03-27T20:49:33.055Z,6.70
2018-03-27T20:52:00.510Z,6.57
2018-03-27T20:54:27.957Z,7.40
2018-03-27T20:56:55.684Z,6.87
2018-03-27T20:59:23.131Z,6.70
2018-03-27T21:01:50.577Z,7.53
2018-03-27T21:04:18.268Z,7.60
2018-03-27T21:06:45.710Z,9.50
2018-03-27T21:09:13.177Z,9.50
2018-03-27T21:11:40.635Z,7.03
2018-03-27T21:14:08.073Z,6.90
2018-03-27T21:16:35.517Z,9.20
2018-03-27T21:19:03.252Z,8.07
2018-03-27T21:21:30.830Z,7.67
2018-03-27T21:23:58.253Z,6.83
2018-03-27T21:26:25.693Z,7.00
2018-03-27T21:28:53.191Z,8.83
2018-03-27T21:31:20.648Z,8.00
2018-03-27T21:33:48.321Z,8.97
2018-03-27T21:36:15.760Z,9.93
2018-03-27T21:38:43.294Z,10.00
2018-03-27T21:41:10.751Z,6.57
2018-03-27T21:43:38.206Z,8.37
2018-03-27T21:46:05.677Z,8.37
2018-03-27T21:48:33.292Z,8.77
2018-03-27T21:51:00.733Z,8.23
2018-03-27T21:53:28.203Z,8.30
2018-03-27T21:55:55.655Z,6.77
2018-03-27T21:58:23.111Z,9.63
2018-03-27T22:00:50.549Z,9.83
2018-03-27T22:03:18.541Z,11.40
2018-03-27T22:05:45.980Z,9.40
2018-03-27T22:08:13.473Z,8.57
2018-03-27T22:10:40.981Z,9.33
2018-03-27T22:13:08.412Z,6.40
2018-03-27T22:15:36.056Z,6.50
2018-03-27T22:18:03.493Z,7.40
2018-03-27T22:20:31.049Z,6.37
2018-03-27T22:22:58.864Z,6.30
2018-03-27T22:25:26.290Z,8.37
2018-03-27T22:27:53.733Z,7.20
2018-03-27T22:30:21.202Z,5.67
2018-03-27T22:32:48.633Z,5.40
2018-03-27T22:35:16.087Z,7.23
2018-03-27T22:37:43.521Z,7.93
2018-03-27T22:40:11.168Z,6.70
2018-03-27T22:42:38.635Z,6.13
2018-03-27T22:45:06.132Z,6.27
2018-03-27T22:47:33.980Z,4.90
2018-03-27T22:50:01.427Z,4.77
2018-03-27T22:52:28.900Z,5.03
2018-03-27T22:54:56.355Z,7.10
2018-03-27T22:57:23.800Z,5.80
2018-03-27T22:59:51.362Z,5.80
2018-03-27T23:02:19.141Z,4.17
2018-03-27T23:04:46.577Z,5.23
2018-03-27T23:07:14.684Z,5.53
2018-03-27T23:09:42.138Z,5.23
2018-03-27T23:12:09.611Z,4.50
2018-03-27T23:14:37.059Z,4.50
2018-03-27T23:17:04.647Z,6.73
2018-03-27T23:19:32.088Z,4.00
2018-03-27T23:21:59.543Z,4.00
2018-03-27T23:24:27.008Z,5.00
2018-03-27T23:26:55.013Z,4.63
2018-03-27T23:29:22.453Z,4.10
2018-03-27T23:31:49.912Z,4.83
2018-03-27T23:34:17.581Z,3.30
2018-03-27T23:36:45.030Z,4.20
2018-03-27T23:39:12.465Z,4.13
2018-03-27T23:41:39.936Z,4.13
2018-03-27T23:44:07.396Z,5.47
2018-03-27T23:46:35.011Z,4.30
2018-03-27T23:49:03.961Z,4.40
2018-03-27T23:51:31.420Z,4.20
2018-03-27T23:53:58.876Z,3.77
2018-03-27T23:56:26.340Z,5.33
2018-03-27T23:58:53.765Z,5.40
